createdAt,value
2023-05-06T00:02:42.114Z,1.90
2023-05-06T00:06:14.248Z,2.70
2023-05-06T00:09:46.205Z,2.40
2023-05-06T00:13:18.359Z,2.17
2023-05-06T00:16:51.173Z,2.47
2023-05-06T00:20:23.241Z,2.60
2023-05-06T00:23:55.585Z,2.07
2023-05-06T00:27:27.641Z,2.40
2023-05-06T00:30:59.318Z,2.22
2023-05-06T00:34:31.346Z,2.27
2023-05-06T00:38:12.041Z,2.17
2023-05-06T00:41:43.753Z,2.60
2023-05-06T00:45:15.798Z,2.67
2023-05-06T00:48:47.634Z,2.83
2023-05-06T00:52:20.155Z,2.85
2023-05-06T00:55:52.011Z,2.28
2023-05-06T00:59:24.370Z,2.70
2023-05-06T01:02:56.268Z,2.40
2023-05-06T01:06:50.504Z,2.78
2023-05-06T01:10:53.547Z,2.60
2023-05-06T01:14:32.673Z,2.80
2023-05-06T01:18:17.102Z,2.80
2023-05-06T01:21:52.761Z,2.67
2023-05-06T01:25:24.674Z,2.45
2023-05-06T01:28:58.396Z,2.50
2023-05-06T01:33:07.349Z,2.47
2023-05-06T01:36:53.845Z,2.75
2023-05-06T01:40:28.092Z,2.92
2023-05-06T01:44:01.391Z,3.13
2023-05-06T01:47:34.507Z,2.47
2023-05-06T01:51:07.140Z,2.90
2023-05-06T01:54:38.950Z,2.25
2023-05-06T01:58:11.023Z,2.43
2023-05-06T02:01:42.697Z,2.30
2023-05-06T02:05:14.944Z,1.85
2023-05-06T02:08:47.019Z,2.58
2023-05-06T02:12:19.036Z,2.37
2023-05-06T02:15:54.843Z,2.90
2023-05-06T02:19:26.721Z,2.65
2023-05-06T02:22:58.859Z,2.42
2023-05-06T02:26:31.034Z,2.50
2023-05-06T02:30:03.692Z,2.53
2023-05-06T02:33:36.092Z,2.42
2023-05-06T02:37:08.237Z,3.10
2023-05-06T02:40:39.984Z,2.50
2023-05-06T02:44:12.813Z,2.60
2023-05-06T02:47:44.858Z,2.47
2023-05-06T02:51:16.901Z,2.20
2023-05-06T02:54:48.979Z,2.30
2023-05-06T02:58:20.900Z,2.20
2023-05-06T03:01:53.105Z,2.80
2023-05-06T03:05:24.927Z,2.10
2023-05-06T03:08:57.562Z,1.80
2023-05-06T03:12:29.311Z,1.60
2023-05-06T03:16:04.326Z,1.85
2023-05-06T03:19:36.571Z,2.20
2023-05-06T03:23:08.645Z,2.20
2023-05-06T03:26:41.330Z,1.92
2023-05-06T03:30:13.626Z,1.95
2023-05-06T03:33:45.650Z,1.63
2023-05-06T03:37:18.939Z,1.90
2023-05-06T03:40:50.987Z,1.92
2023-05-06T03:44:23.039Z,1.60
2023-05-06T03:47:54.775Z,2.30
2023-05-06T03:51:27.620Z,1.98
2023-05-06T03:54:59.529Z,1.60
2023-05-06T03:58:31.771Z,1.80
2023-05-06T04:02:03.614Z,1.87
2023-05-06T04:05:36.406Z,1.98
2023-05-06T04:09:08.246Z,1.73
2023-05-06T04:12:40.304Z,1.97
2023-05-06T04:16:12.867Z,1.90
2023-05-06T04:19:47.432Z,2.10
2023-05-06T04:23:20.563Z,2.25
2023-05-06T04:26:52.506Z,2.17
2023-05-06T04:30:25.015Z,2.05
2023-05-06T04:33:57.468Z,1.73
2023-05-06T04:37:31.102Z,1.88
2023-05-06T04:41:05.184Z,2.17
2023-05-06T04:44:36.915Z,1.98
2023-05-06T04:48:10.066Z,1.95
2023-05-06T04:51:44.341Z,2.33
2023-05-06T04:55:16.391Z,2.00
2023-05-06T04:58:48.160Z,1.70
2023-05-06T05:02:20.476Z,2.05
2023-05-06T05:05:52.343Z,1.87
2023-05-06T05:09:24.359Z,2.47
2023-05-06T05:12:56.709Z,2.20
2023-05-06T05:16:28.738Z,1.70
2023-05-06T05:20:00.876Z,2.50
2023-05-06T05:23:33.075Z,2.47
2023-05-06T05:27:04.741Z,2.47
2023-05-06T05:30:36.760Z,2.37
2023-05-06T05:34:08.975Z,2.27
2023-05-06T05:37:41.069Z,2.25
2023-05-06T05:41:13.358Z,2.47
2023-05-06T05:44:46.761Z,2.27
2023-05-06T05:48:18.959Z,3.28
2023-05-06T05:51:50.916Z,2.85
2023-05-06T05:55:22.959Z,3.30
2023-05-06T05:58:54.752Z,2.58
2023-05-06T06:02:27.267Z,2.60
2023-05-06T06:05:59.453Z,2.90
2023-05-06T06:09:31.544Z,3.20
2023-05-06T06:13:04.009Z,2.45
2023-05-06T06:16:37.132Z,2.78
2023-05-06T06:20:10.196Z,3.00
2023-05-06T06:23:41.945Z,3.33
2023-05-06T06:27:14.040Z,2.85
2023-05-06T06:30:46.022Z,2.65
2023-05-06T06:34:18.247Z,2.20
2023-05-06T06:37:50.334Z,2.20
2023-05-06T06:41:22.506Z,2.38
2023-05-06T06:44:54.499Z,2.63
2023-05-06T06:48:26.307Z,2.20
2023-05-06T06:51:58.420Z,2.42
2023-05-06T06:55:30.305Z,2.35
2023-05-06T06:59:02.234Z,2.58
2023-05-06T07:02:34.772Z,2.00
2023-05-06T07:06:06.571Z,2.58
2023-05-06T07:09:40.267Z,2.20
2023-05-06T07:13:12.293Z,2.00
2023-05-06T07:16:46.401Z,2.23
2023-05-06T07:20:19.352Z,2.42
2023-05-06T07:23:51.571Z,1.70
2023-05-06T07:27:24.355Z,2.30
2023-05-06T07:30:59.199Z,1.97
2023-05-06T07:34:31.611Z,1.73
2023-05-06T07:38:03.640Z,2.28
2023-05-06T07:41:35.667Z,1.73
2023-05-06T07:45:13.151Z,2.03
2023-05-06T07:48:45.687Z,2.33
2023-05-06T07:52:17.770Z,1.80
2023-05-06T07:55:49.650Z,2.23
2023-05-06T07:59:22.343Z,2.00
2023-05-06T08:02:54.443Z,1.70
2023-05-06T08:06:27.123Z,1.80
2023-05-06T08:09:59.116Z,1.83
2023-05-06T08:13:31.728Z,2.38
2023-05-06T08:17:04.117Z,2.53
2023-05-06T08:20:36.158Z,2.07
2023-05-06T08:24:08.189Z,2.70
2023-05-06T08:27:40.540Z,2.33
2023-05-06T08:31:12.532Z,2.57
2023-05-06T08:34:44.729Z,2.22
2023-05-06T08:38:16.837Z,2.45
2023-05-06T08:41:52.399Z,2.33
2023-05-06T08:45:25.510Z,2.65
2023-05-06T08:48:59.936Z,2.38
2023-05-06T08:52:32.571Z,2.28
2023-05-06T08:56:08.834Z,2.30
2023-05-06T08:59:42.538Z,2.58
2023-05-06T09:03:14.740Z,2.80
2023-05-06T09:06:47.022Z,3.43
2023-05-06T09:10:19.336Z,2.92
2023-05-06T09:14:10.101Z,3.08
2023-05-06T09:17:42.345Z,3.47
2023-05-06T09:21:14.417Z,3.33
2023-05-06T09:24:46.118Z,3.28
2023-05-06T09:28:18.128Z,3.38
2023-05-06T09:31:51.303Z,2.50
2023-05-06T09:35:28.751Z,3.30
2023-05-06T09:39:00.899Z,3.53
2023-05-06T09:42:33.587Z,3.42
2023-05-06T09:46:06.347Z,3.83
2023-05-06T09:49:39.744Z,2.90
2023-05-06T09:53:13.300Z,2.90
2023-05-06T09:56:46.565Z,3.25
2023-05-06T10:00:19.103Z,3.10
2023-05-06T10:03:53.314Z,3.50
2023-05-06T10:07:28.955Z,2.47
2023-05-06T10:11:01.700Z,3.23
2023-05-06T10:14:34.314Z,3.58
2023-05-06T10:18:10.981Z,3.60
2023-05-06T10:21:51.418Z,3.72
2023-05-06T10:25:43.852Z,4.33
2023-05-06T10:29:17.224Z,3.40
2023-05-06T10:32:52.410Z,3.70
2023-05-06T10:36:27.840Z,3.07
2023-05-06T10:40:00.576Z,3.17
2023-05-06T10:43:34.190Z,3.65
2023-05-06T10:47:05.957Z,4.15
2023-05-06T10:50:38.351Z,3.60
2023-05-06T10:54:11.505Z,3.83
2023-05-06T10:57:43.745Z,3.78
2023-05-06T11:01:16.625Z,3.83
2023-05-06T11:04:51.820Z,4.00
2023-05-06T11:08:25.711Z,5.05
2023-05-06T11:12:03.392Z,3.85
2023-05-06T11:15:43.091Z,3.80
2023-05-06T11:19:27.263Z,4.00
2023-05-06T11:22:59.430Z,4.43
2023-05-06T11:26:33.343Z,5.03
2023-05-06T11:30:13.041Z,4.97
2023-05-06T11:33:52.414Z,4.72
2023-05-06T11:37:30.550Z,4.85
2023-05-06T11:41:05.585Z,4.70
2023-05-06T11:44:39.041Z,4.80
2023-05-06T11:48:18.518Z,5.07
2023-05-06T11:51:54.948Z,5.03
2023-05-06T11:55:27.455Z,5.20
2023-05-06T11:58:59.357Z,4.82
2023-05-06T12:02:31.583Z,5.45
2023-05-06T12:06:03.655Z,4.97
2023-05-06T12:09:37.955Z,6.47
2023-05-06T12:13:09.946Z,5.53
2023-05-06T12:16:42.481Z,5.50
2023-05-06T12:20:14.828Z,6.75
2023-05-06T12:24:02.435Z,6.65
2023-05-06T12:27:35.721Z,6.18
2023-05-06T12:31:24.053Z,6.67
2023-05-06T12:34:56.561Z,7.22
2023-05-06T12:38:28.512Z,5.75
2023-05-06T12:42:00.739Z,6.77
2023-05-06T12:45:32.812Z,5.97
2023-05-06T12:49:05.028Z,5.85
2023-05-06T12:52:44.628Z,6.27
2023-05-06T12:56:16.644Z,6.03
2023-05-06T12:59:49.324Z,6.35
2023-05-06T13:03:21.548Z,6.82
2023-05-06T13:06:54.466Z,5.83
2023-05-06T13:10:26.542Z,5.95
2023-05-06T13:13:58.624Z,5.30
2023-05-06T13:17:32.979Z,5.40
2023-05-06T13:21:05.766Z,5.88
2023-05-06T13:24:37.815Z,5.60
2023-05-06T13:28:10.001Z,5.63
2023-05-06T13:31:41.697Z,4.90
2023-05-06T13:35:13.743Z,5.43
2023-05-06T13:38:45.480Z,5.20
2023-05-06T13:42:17.425Z,5.53
2023-05-06T13:45:49.448Z,4.83
2023-05-06T13:49:21.174Z,6.07
2023-05-06T13:52:53.277Z,5.68
2023-05-06T13:56:25.138Z,5.47
2023-05-06T13:59:57.170Z,4.70
2023-05-06T14:03:29.412Z,5.45
2023-05-06T14:07:01.566Z,5.88
2023-05-06T14:10:33.296Z,5.53
2023-05-06T14:14:06.514Z,5.87
2023-05-06T14:17:38.728Z,5.45
2023-05-06T14:21:10.535Z,5.22
2023-05-06T14:24:42.773Z,5.87
2023-05-06T14:28:15.686Z,5.25
2023-05-06T14:31:48.046Z,6.15
2023-05-06T14:35:20.193Z,6.43
2023-05-06T14:38:51.878Z,6.13
2023-05-06T14:42:23.848Z,5.57
2023-05-06T14:45:55.721Z,6.05
2023-05-06T14:49:27.858Z,6.30
2023-05-06T14:53:00.587Z,6.10
2023-05-06T14:56:34.413Z,4.80
2023-05-06T15:00:10.398Z,5.32
2023-05-06T15:03:42.739Z,4.60
2023-05-06T15:07:16.697Z,4.60
2023-05-06T15:10:49.473Z,4.32
2023-05-06T15:14:21.484Z,4.40
2023-05-06T15:17:54.649Z,4.40
2023-05-06T15:21:27.599Z,4.30
2023-05-06T15:24:59.335Z,4.53
2023-05-06T15:28:31.670Z,4.43
2023-05-06T15:32:03.988Z,4.20
2023-05-06T15:35:35.928Z,4.03
2023-05-06T15:39:08.333Z,4.55
2023-05-06T15:42:40.821Z,4.25
2023-05-06T15:46:12.935Z,4.97
2023-05-06T15:49:52.921Z,4.23
2023-05-06T15:53:28.985Z,4.10
2023-05-06T15:57:04.936Z,4.43
2023-05-06T16:00:38.568Z,5.10
2023-05-06T16:04:10.402Z,5.07
2023-05-06T16:07:42.514Z,4.68
2023-05-06T16:11:17.592Z,5.15
2023-05-06T16:14:49.925Z,4.60
2023-05-06T16:18:22.403Z,4.47
2023-05-06T16:21:55.830Z,4.65
2023-05-06T16:25:27.663Z,4.47
2023-05-06T16:29:01.432Z,5.13
2023-05-06T16:32:33.564Z,4.68
2023-05-06T16:36:05.787Z,4.72
2023-05-06T16:39:37.842Z,4.37
2023-05-06T16:43:09.985Z,4.13
2023-05-06T16:46:42.172Z,4.13
2023-05-06T16:50:14.223Z,4.00
2023-05-06T16:53:46.871Z,4.17
2023-05-06T16:57:19.288Z,4.20
2023-05-06T17:00:54.233Z,3.78
2023-05-06T17:04:26.248Z,4.57
2023-05-06T17:07:58.177Z,3.67
2023-05-06T17:11:30.337Z,4.82
2023-05-06T17:15:03.995Z,4.47
2023-05-06T17:18:36.222Z,4.00
2023-05-06T17:22:08.193Z,3.53
2023-05-06T17:25:40.361Z,4.47
2023-05-06T17:29:12.483Z,4.50
2023-05-06T17:32:44.266Z,4.20
2023-05-06T17:36:22.142Z,4.38
2023-05-06T17:39:57.281Z,4.65
2023-05-06T17:43:29.274Z,4.50
2023-05-06T17:47:01.596Z,4.10
2023-05-06T17:50:33.733Z,3.90
2023-05-06T17:54:05.778Z,4.03
2023-05-06T17:57:37.932Z,4.37
2023-05-06T18:01:09.973Z,4.93
2023-05-06T18:04:44.192Z,4.22
2023-05-06T18:08:16.001Z,3.80
2023-05-06T18:11:48.139Z,3.90
2023-05-06T18:15:20.413Z,3.70
2023-05-06T18:18:52.722Z,3.67
2023-05-06T18:22:24.830Z,4.07
2023-05-06T18:25:56.641Z,4.40
2023-05-06T18:29:30.487Z,4.55
2023-05-06T18:33:02.294Z,3.90
2023-05-06T18:36:36.306Z,4.27
2023-05-06T18:40:12.090Z,4.28
2023-05-06T18:43:44.365Z,4.25
2023-05-06T18:47:17.095Z,4.60
2023-05-06T18:50:51.069Z,4.72
2023-05-06T18:54:25.995Z,4.60
2023-05-06T18:57:58.003Z,4.10
2023-05-06T19:01:29.846Z,5.10
2023-05-06T19:05:01.975Z,5.90
2023-05-06T19:08:34.826Z,5.53
2023-05-06T19:12:06.979Z,5.37
2023-05-06T19:15:38.687Z,5.53
2023-05-06T19:19:11.300Z,5.72
2023-05-06T19:22:46.171Z,5.22
2023-05-06T19:26:18.053Z,6.00
2023-05-06T19:29:50.320Z,5.93
2023-05-06T19:33:22.034Z,6.40
2023-05-06T19:36:54.119Z,6.00
2023-05-06T19:40:26.230Z,5.83
2023-05-06T19:43:58.416Z,6.47
2023-05-06T19:47:30.765Z,6.35
2023-05-06T19:51:03.458Z,6.03
2023-05-06T19:54:35.741Z,6.20
2023-05-06T19:58:07.757Z,5.93
2023-05-06T20:01:39.562Z,5.50
2023-05-06T20:05:11.968Z,5.50
2023-05-06T20:08:44.275Z,6.63
2023-05-06T20:12:17.193Z,5.70
2023-05-06T20:15:49.421Z,5.38
2023-05-06T20:19:26.229Z,6.83
2023-05-06T20:22:58.279Z,6.53
2023-05-06T20:26:30.739Z,6.03
2023-05-06T20:30:03.444Z,6.20
2023-05-06T20:33:35.726Z,5.20
2023-05-06T20:37:07.966Z,6.30
2023-05-06T20:40:42.519Z,5.63
2023-05-06T20:44:14.954Z,6.60
2023-05-06T20:47:46.915Z,6.07
2023-05-06T20:51:19.308Z,6.57
2023-05-06T20:54:51.549Z,6.40
2023-05-06T20:58:23.724Z,5.73
2023-05-06T21:01:56.487Z,6.63
2023-05-06T21:05:28.415Z,5.63
2023-05-06T21:09:00.567Z,5.93
2023-05-06T21:12:33.283Z,6.50
2023-05-06T21:16:05.669Z,6.18
2023-05-06T21:19:37.584Z,5.53
2023-05-06T21:23:09.545Z,6.17
2023-05-06T21:26:41.608Z,6.10
2023-05-06T21:30:14.059Z,5.80
2023-05-06T21:33:46.005Z,5.88
2023-05-06T21:37:18.150Z,6.13
2023-05-06T21:40:50.399Z,6.00
2023-05-06T21:44:22.408Z,5.32
2023-05-06T21:47:54.447Z,6.00
2023-05-06T21:51:28.178Z,5.27
2023-05-06T21:55:00.524Z,5.55
2023-05-06T21:58:32.597Z,5.90
2023-05-06T22:02:04.408Z,5.53
2023-05-06T22:05:38.088Z,4.77
2023-05-06T22:09:10.037Z,5.75
2023-05-06T22:12:42.115Z,5.78
2023-05-06T22:16:14.203Z,4.90
2023-05-06T22:19:46.680Z,5.60
2023-05-06T22:23:21.804Z,5.95
2023-05-06T22:26:53.761Z,5.43
2023-05-06T22:30:25.998Z,5.17
2023-05-06T22:33:59.219Z,5.78
2023-05-06T22:37:31.404Z,6.10
2023-05-06T22:41:03.532Z,6.10
2023-05-06T22:44:35.349Z,5.65
2023-05-06T22:48:07.568Z,5.22
2023-05-06T22:51:39.579Z,5.10
2023-05-06T22:55:12.073Z,5.37
2023-05-06T22:58:44.001Z,5.10
2023-05-06T23:02:16.161Z,5.35
2023-05-06T23:05:48.276Z,5.07
2023-05-06T23:09:20.701Z,5.30
2023-05-06T23:12:52.607Z,5.38
2023-05-06T23:16:24.646Z,4.57
2023-05-06T23:19:56.729Z,4.57
2023-05-06T23:23:32.284Z,4.47
2023-05-06T23:27:04.476Z,4.75
2023-05-06T23:30:36.356Z,4.80
2023-05-06T23:34:08.879Z,4.82
2023-05-06T23:37:40.943Z,4.50
2023-05-06T23:41:13.162Z,4.88
2023-05-06T23:44:45.696Z,4.67
2023-05-06T23:48:17.647Z,4.40
2023-05-06T23:51:50.101Z,4.25
2023-05-06T23:55:22.347Z,5.10
2023-05-06T23:58:54.613Z,4.95
